CZ-0029 weather

Úvn/Central Military Hospital Střešovice -Pavilion Ch 2 Heliport
Prague, Prague (capital city), Czech Republic

Public forecast

Using degrees Celsius for public forecast. Weather courtesy of forecast.io.

Closest aviation weather report (METAR) to Úvn/Central Military Hospital Střešovice -Pavilion Ch 2 Heliport

Closest report is Václav Havel Airport Prague, 4.0 nm (7.5 km) W. Retrieved 2019/12/07 03:30 UTC (6 minutes ago):

LKPR 070330Z 23020G30KT 9999 SCT019 05/02 Q1008 NOSIG

Closest aviation forecast (TAF) to Úvn/Central Military Hospital Střešovice -Pavilion Ch 2 Heliport

Closest forecast is Václav Havel Airport Prague, 4.0 nm (7.5 km) W. Retrieved 2019-12-07 00:24 UTC (3 hours ago):

TAF LKPR 062300Z 0700/0806 19009KT CAVOK BECMG 0700/0701 22014KT 9999 BKN040 TEMPO 0701/0806 24017G32KT TEMPO 0701/0706 7000 RA SCT010 BKN017 TEMPO 0706/0718 9000 -SHRA BKN025